sensor_id;sensor_type;location;lat;lon;timestamp;P1;durP1;ratioP1;P2;durP2;ratioP2
31382;SDS011;18014;49.228;11.102;2022-10-28T00:00:15;9.43;;;6.03;;
31382;SDS011;18014;49.228;11.102;2022-10-28T00:02:16;9.30;;;5.88;;
31382;SDS011;18014;49.228;11.102;2022-10-28T00:04:17;13.40;;;5.57;;
31382;SDS011;18014;49.228;11.102;2022-10-28T00:06:20;7.65;;;5.53;;
31382;SDS011;18014;49.228;11.102;2022-10-28T00:08:22;10.00;;;5.00;;
31382;SDS011;18014;49.228;11.102;2022-10-28T00:10:23;5.53;;;4.70;;
31382;SDS011;18014;49.228;11.102;2022-10-28T00:12:24;11.75;;;5.90;;
31382;SDS011;18014;49.228;11.102;2022-10-28T00:14:25;9.45;;;6.53;;
31382;SDS011;18014;49.228;11.102;2022-10-28T00:16:28;10.55;;;6.13;;
31382;SDS011;18014;49.228;11.102;2022-10-28T00:18:31;9.82;;;6.43;;
31382;SDS011;18014;49.228;11.102;2022-10-28T00:20:32;12.48;;;6.20;;
31382;SDS011;18014;49.228;11.102;2022-10-28T00:22:33;8.65;;;5.57;;
31382;SDS011;18014;49.228;11.102;2022-10-28T00:24:34;7.72;;;5.32;;
31382;SDS011;18014;49.228;11.102;2022-10-28T00:26:36;11.98;;;6.55;;
31382;SDS011;18014;49.228;11.102;2022-10-28T00:30:43;14.27;;;7.35;;
31382;SDS011;18014;49.228;11.102;2022-10-28T00:32:44;9.82;;;5.80;;
31382;SDS011;18014;49.228;11.102;2022-10-28T00:34:45;10.45;;;5.00;;
31382;SDS011;18014;49.228;11.102;2022-10-28T00:36:46;10.20;;;6.07;;
31382;SDS011;18014;49.228;11.102;2022-10-28T00:38:49;5.93;;;5.15;;
31382;SDS011;18014;49.228;11.102;2022-10-28T00:42:51;7.72;;;5.53;;
31382;SDS011;18014;49.228;11.102;2022-10-28T00:44:54;8.25;;;5.53;;
31382;SDS011;18014;49.228;11.102;2022-10-28T00:46:59;9.38;;;5.35;;
31382;SDS011;18014;49.228;11.102;2022-10-28T00:49:18;8.52;;;5.78;;
31382;SDS011;18014;49.228;11.102;2022-10-28T00:51:23;11.10;;;5.78;;
31382;SDS011;18014;49.228;11.102;2022-10-28T00:53:27;9.13;;;5.03;;
31382;SDS011;18014;49.228;11.102;2022-10-28T00:55:30;6.43;;;4.43;;
31382;SDS011;18014;49.228;11.102;2022-10-28T00:57:32;7.80;;;4.88;;
31382;SDS011;18014;49.228;11.102;2022-10-28T00:59:36;10.07;;;5.65;;
31382;SDS011;18014;49.228;11.102;2022-10-28T01:01:40;8.88;;;5.38;;
31382;SDS011;18014;49.228;11.102;2022-10-28T01:03:43;6.72;;;5.45;;
31382;SDS011;18014;49.228;11.102;2022-10-28T01:05:45;11.30;;;6.00;;
31382;SDS011;18014;49.228;11.102;2022-10-28T01:07:49;7.15;;;5.60;;
31382;SDS011;18014;49.228;11.102;2022-10-28T01:09:50;10.90;;;6.07;;
31382;SDS011;18014;49.228;11.102;2022-10-28T01:16:41;13.18;;;7.50;;
31382;SDS011;18014;49.228;11.102;2022-10-28T01:24:16;12.95;;;6.60;;
31382;SDS011;18014;49.228;11.102;2022-10-28T01:31:43;8.68;;;5.10;;
31382;SDS011;18014;49.228;11.102;2022-10-28T01:33:53;9.40;;;6.50;;
31382;SDS011;18014;49.228;11.102;2022-10-28T01:36:00;12.85;;;7.30;;
31382;SDS011;18014;49.228;11.102;2022-10-28T01:40:09;14.50;;;7.15;;
31382;SDS011;18014;49.228;11.102;2022-10-28T01:42:25;11.80;;;7.90;;
31382;SDS011;18014;49.228;11.102;2022-10-28T01:44:37;12.10;;;7.57;;
31382;SDS011;18014;49.228;11.102;2022-10-28T01:49:25;12.02;;;6.43;;
31382;SDS011;18014;49.228;11.102;2022-10-28T01:51:30;8.90;;;6.90;;
31382;SDS011;18014;49.228;11.102;2022-10-28T01:53:53;11.73;;;7.82;;
31382;SDS011;18014;49.228;11.102;2022-10-28T01:55:58;8.30;;;5.90;;
31382;SDS011;18014;49.228;11.102;2022-10-28T01:58:03;9.02;;;5.90;;
31382;SDS011;18014;49.228;11.102;2022-10-28T02:00:05;6.03;;;5.43;;
31382;SDS011;18014;49.228;11.102;2022-10-28T02:02:07;6.70;;;4.70;;
31382;SDS011;18014;49.228;11.102;2022-10-28T02:04:08;8.23;;;5.85;;
31382;SDS011;18014;49.228;11.102;2022-10-28T02:06:13;10.82;;;6.20;;
31382;SDS011;18014;49.228;11.102;2022-10-28T02:10:30;9.25;;;7.28;;
31382;SDS011;18014;49.228;11.102;2022-10-28T02:12:41;9.85;;;6.28;;
31382;SDS011;18014;49.228;11.102;2022-10-28T02:14:47;10.43;;;7.35;;
31382;SDS011;18014;49.228;11.102;2022-10-28T02:16:57;12.95;;;9.57;;
31382;SDS011;18014;49.228;11.102;2022-10-28T02:24:00;14.70;;;8.68;;
31382;SDS011;18014;49.228;11.102;2022-10-28T02:28:16;15.20;;;8.05;;
31382;SDS011;18014;49.228;11.102;2022-10-28T02:30:24;15.43;;;9.90;;
31382;SDS011;18014;49.228;11.102;2022-10-28T02:32:48;13.93;;;8.07;;
31382;SDS011;18014;49.228;11.102;2022-10-28T02:34:57;18.15;;;8.18;;
31382;SDS011;18014;49.228;11.102;2022-10-28T02:37:00;11.43;;;8.10;;
31382;SDS011;18014;49.228;11.102;2022-10-28T02:39:05;12.27;;;8.25;;
31382;SDS011;18014;49.228;11.102;2022-10-28T02:41:10;15.43;;;7.93;;
31382;SDS011;18014;49.228;11.102;2022-10-28T02:43:19;15.50;;;9.30;;
31382;SDS011;18014;49.228;11.102;2022-10-28T02:45:28;14.60;;;9.73;;
31382;SDS011;18014;49.228;11.102;2022-10-28T02:47:34;10.35;;;8.80;;
31382;SDS011;18014;49.228;11.102;2022-10-28T02:49:39;10.82;;;7.22;;
31382;SDS011;18014;49.228;11.102;2022-10-28T02:52:05;13.23;;;9.90;;
31382;SDS011;18014;49.228;11.102;2022-10-28T02:54:13;12.63;;;8.90;;
31382;SDS011;18014;49.228;11.102;2022-10-28T02:56:18;11.98;;;9.15;;
31382;SDS011;18014;49.228;11.102;2022-10-28T02:58:21;9.10;;;8.15;;
31382;SDS011;18014;49.228;11.102;2022-10-28T03:00:22;11.52;;;8.80;;
31382;SDS011;18014;49.228;11.102;2022-10-28T03:02:24;14.43;;;9.35;;
31382;SDS011;18014;49.228;11.102;2022-10-28T03:04:25;14.57;;;10.07;;
31382;SDS011;18014;49.228;11.102;2022-10-28T03:06:26;17.73;;;10.68;;
31382;SDS011;18014;49.228;11.102;2022-10-28T03:08:27;13.73;;;10.77;;
31382;SDS011;18014;49.228;11.102;2022-10-28T03:10:28;21.15;;;12.80;;
31382;SDS011;18014;49.228;11.102;2022-10-28T03:12:29;20.27;;;13.25;;
31382;SDS011;18014;49.228;11.102;2022-10-28T03:14:30;11.98;;;10.75;;
31382;SDS011;18014;49.228;11.102;2022-10-28T03:16:31;12.32;;;10.15;;
31382;SDS011;18014;49.228;11.102;2022-10-28T03:18:32;12.70;;;9.32;;
31382;SDS011;18014;49.228;11.102;2022-10-28T03:20:33;13.02;;;8.95;;
31382;SDS011;18014;49.228;11.102;2022-10-28T03:22:34;10.80;;;8.32;;
31382;SDS011;18014;49.228;11.102;2022-10-28T03:24:35;16.05;;;8.75;;
31382;SDS011;18014;49.228;11.102;2022-10-28T03:26:36;15.30;;;9.73;;
31382;SDS011;18014;49.228;11.102;2022-10-28T03:28:37;15.80;;;10.40;;
31382;SDS011;18014;49.228;11.102;2022-10-28T03:30:38;11.35;;;7.82;;
31382;SDS011;18014;49.228;11.102;2022-10-28T03:32:42;14.77;;;8.95;;
31382;SDS011;18014;49.228;11.102;2022-10-28T03:34:43;15.88;;;9.40;;
31382;SDS011;18014;49.228;11.102;2022-10-28T03:36:45;13.25;;;9.23;;
31382;SDS011;18014;49.228;11.102;2022-10-28T03:38:46;13.40;;;9.45;;
31382;SDS011;18014;49.228;11.102;2022-10-28T03:40:47;22.90;;;10.07;;
31382;SDS011;18014;49.228;11.102;2022-10-28T03:42:48;11.85;;;8.23;;
31382;SDS011;18014;49.228;11.102;2022-10-28T03:44:49;12.68;;;7.65;;
31382;SDS011;18014;49.228;11.102;2022-10-28T03:46:50;8.35;;;7.13;;
31382;SDS011;18014;49.228;11.102;2022-10-28T03:48:51;9.20;;;7.85;;
31382;SDS011;18014;49.228;11.102;2022-10-28T03:50:53;11.45;;;7.25;;
31382;SDS011;18014;49.228;11.102;2022-10-28T03:52:54;11.55;;;7.10;;
31382;SDS011;18014;49.228;11.102;2022-10-28T03:54:55;8.85;;;7.60;;
31382;SDS011;18014;49.228;11.102;2022-10-28T03:56:56;12.25;;;8.77;;
31382;SDS011;18014;49.228;11.102;2022-10-28T03:58:57;16.65;;;7.00;;
31382;SDS011;18014;49.228;11.102;2022-10-28T04:00:58;8.80;;;7.07;;
31382;SDS011;18014;49.228;11.102;2022-10-28T04:02:59;6.00;;;5.40;;
31382;SDS011;18014;49.228;11.102;2022-10-28T04:05:00;10.15;;;6.93;;
31382;SDS011;18014;49.228;11.102;2022-10-28T04:07:01;10.50;;;6.95;;
31382;SDS011;18014;49.228;11.102;2022-10-28T04:09:02;13.48;;;9.50;;
31382;SDS011;18014;49.228;11.102;2022-10-28T04:11:03;16.98;;;9.05;;
31382;SDS011;18014;49.228;11.102;2022-10-28T04:13:04;14.70;;;9.80;;
31382;SDS011;18014;49.228;11.102;2022-10-28T04:15:06;11.95;;;8.98;;
31382;SDS011;18014;49.228;11.102;2022-10-28T04:17:07;11.27;;;8.95;;
31382;SDS011;18014;49.228;11.102;2022-10-28T04:19:08;14.30;;;9.48;;
31382;SDS011;18014;49.228;11.102;2022-10-28T04:21:09;15.18;;;8.52;;
31382;SDS011;18014;49.228;11.102;2022-10-28T04:23:13;11.25;;;8.68;;
31382;SDS011;18014;49.228;11.102;2022-10-28T04:25:17;13.20;;;8.55;;
31382;SDS011;18014;49.228;11.102;2022-10-28T04:27:18;11.48;;;8.55;;
31382;SDS011;18014;49.228;11.102;2022-10-28T04:29:19;12.05;;;8.82;;
31382;SDS011;18014;49.228;11.102;2022-10-28T04:31:20;16.55;;;10.70;;
31382;SDS011;18014;49.228;11.102;2022-10-28T04:33:21;16.90;;;9.18;;
31382;SDS011;18014;49.228;11.102;2022-10-28T04:35:22;21.90;;;9.95;;
31382;SDS011;18014;49.228;11.102;2022-10-28T04:37:23;15.05;;;9.32;;
31382;SDS011;18014;49.228;11.102;2022-10-28T04:39:24;15.20;;;11.68;;
31382;SDS011;18014;49.228;11.102;2022-10-28T04:41:25;15.43;;;10.85;;
31382;SDS011;18014;49.228;11.102;2022-10-28T04:43:26;14.32;;;10.20;;
31382;SDS011;18014;49.228;11.102;2022-10-28T04:45:27;16.95;;;10.88;;
31382;SDS011;18014;49.228;11.102;2022-10-28T04:47:29;14.23;;;9.85;;
31382;SDS011;18014;49.228;11.102;2022-10-28T04:49:30;16.15;;;10.73;;
31382;SDS011;18014;49.228;11.102;2022-10-28T04:51:31;16.00;;;8.82;;
31382;SDS011;18014;49.228;11.102;2022-10-28T04:53:32;12.27;;;9.77;;
31382;SDS011;18014;49.228;11.102;2022-10-28T04:55:33;13.30;;;8.85;;
31382;SDS011;18014;49.228;11.102;2022-10-28T04:57:34;8.95;;;7.47;;
31382;SDS011;18014;49.228;11.102;2022-10-28T04:59:35;16.38;;;10.63;;
31382;SDS011;18014;49.228;11.102;2022-10-28T05:01:36;12.65;;;10.25;;
31382;SDS011;18014;49.228;11.102;2022-10-28T05:03:37;12.35;;;9.15;;
31382;SDS011;18014;49.228;11.102;2022-10-28T05:05:38;12.10;;;9.00;;
31382;SDS011;18014;49.228;11.102;2022-10-28T05:07:39;10.98;;;8.23;;
31382;SDS011;18014;49.228;11.102;2022-10-28T05:09:40;13.18;;;8.77;;
31382;SDS011;18014;49.228;11.102;2022-10-28T05:11:41;14.65;;;10.95;;
31382;SDS011;18014;49.228;11.102;2022-10-28T05:13:42;12.23;;;8.77;;
31382;SDS011;18014;49.228;11.102;2022-10-28T05:15:43;13.93;;;8.63;;
31382;SDS011;18014;49.228;11.102;2022-10-28T05:17:46;12.32;;;8.35;;
31382;SDS011;18014;49.228;11.102;2022-10-28T05:19:47;41.90;;;8.40;;
31382;SDS011;18014;49.228;11.102;2022-10-28T05:21:48;18.05;;;11.07;;
31382;SDS011;18014;49.228;11.102;2022-10-28T05:23:49;10.93;;;6.93;;
31382;SDS011;18014;49.228;11.102;2022-10-28T05:25:50;8.98;;;7.47;;
31382;SDS011;18014;49.228;11.102;2022-10-28T05:27:51;14.00;;;8.40;;
31382;SDS011;18014;49.228;11.102;2022-10-28T05:29:52;11.05;;;6.55;;
31382;SDS011;18014;49.228;11.102;2022-10-28T05:31:53;13.25;;;8.93;;
31382;SDS011;18014;49.228;11.102;2022-10-28T05:33:54;11.52;;;7.93;;
31382;SDS011;18014;49.228;11.102;2022-10-28T05:35:57;7.93;;;6.95;;
31382;SDS011;18014;49.228;11.102;2022-10-28T05:37:58;11.32;;;8.98;;
31382;SDS011;18014;49.228;11.102;2022-10-28T05:39:59;7.78;;;6.75;;
31382;SDS011;18014;49.228;11.102;2022-10-28T05:42:00;10.35;;;7.13;;
31382;SDS011;18014;49.228;11.102;2022-10-28T05:44:01;11.23;;;7.53;;
31382;SDS011;18014;49.228;11.102;2022-10-28T05:46:02;13.88;;;8.05;;
31382;SDS011;18014;49.228;11.102;2022-10-28T05:48:04;14.70;;;6.90;;
31382;SDS011;18014;49.228;11.102;2022-10-28T05:50:05;9.32;;;7.70;;
31382;SDS011;18014;49.228;11.102;2022-10-28T05:52:06;11.40;;;7.43;;
31382;SDS011;18014;49.228;11.102;2022-10-28T05:54:07;11.52;;;8.15;;
31382;SDS011;18014;49.228;11.102;2022-10-28T05:56:08;12.13;;;8.13;;
31382;SDS011;18014;49.228;11.102;2022-10-28T05:58:09;12.63;;;8.98;;
31382;SDS011;18014;49.228;11.102;2022-10-28T06:00:11;11.68;;;9.82;;
31382;SDS011;18014;49.228;11.102;2022-10-28T06:02:13;15.93;;;9.52;;
31382;SDS011;18014;49.228;11.102;2022-10-28T06:04:14;9.90;;;8.30;;
31382;SDS011;18014;49.228;11.102;2022-10-28T06:06:15;11.68;;;8.45;;
31382;SDS011;18014;49.228;11.102;2022-10-28T06:08:16;10.73;;;7.65;;
31382;SDS011;18014;49.228;11.102;2022-10-28T06:10:17;12.38;;;9.02;;
31382;SDS011;18014;49.228;11.102;2022-10-28T06:12:18;12.32;;;7.70;;
31382;SDS011;18014;49.228;11.102;2022-10-28T06:14:19;8.55;;;6.68;;
31382;SDS011;18014;49.228;11.102;2022-10-28T06:16:20;10.20;;;6.68;;
31382;SDS011;18014;49.228;11.102;2022-10-28T06:18:21;10.80;;;7.80;;
31382;SDS011;18014;49.228;11.102;2022-10-28T06:20:23;10.30;;;6.28;;
31382;SDS011;18014;49.228;11.102;2022-10-28T06:22:24;10.70;;;7.82;;
31382;SDS011;18014;49.228;11.102;2022-10-28T06:24:25;13.25;;;8.68;;
31382;SDS011;18014;49.228;11.102;2022-10-28T06:26:26;11.27;;;8.27;;
31382;SDS011;18014;49.228;11.102;2022-10-28T06:28:27;10.73;;;6.88;;
31382;SDS011;18014;49.228;11.102;2022-10-28T06:30:28;17.33;;;10.05;;
31382;SDS011;18014;49.228;11.102;2022-10-28T06:32:29;10.25;;;7.63;;
31382;SDS011;18014;49.228;11.102;2022-10-28T06:34:30;11.27;;;8.95;;
31382;SDS011;18014;49.228;11.102;2022-10-28T06:36:31;14.52;;;8.52;;
31382;SDS011;18014;49.228;11.102;2022-10-28T06:38:32;10.15;;;7.55;;
31382;SDS011;18014;49.228;11.102;2022-10-28T06:40:33;14.48;;;8.40;;
31382;SDS011;18014;49.228;11.102;2022-10-28T06:42:34;9.25;;;7.57;;
31382;SDS011;18014;49.228;11.102;2022-10-28T06:44:35;14.13;;;8.93;;
31382;SDS011;18014;49.228;11.102;2022-10-28T06:46:36;16.13;;;10.25;;
31382;SDS011;18014;49.228;11.102;2022-10-28T06:48:37;13.82;;;10.32;;
31382;SDS011;18014;49.228;11.102;2022-10-28T06:50:38;14.40;;;10.05;;
31382;SDS011;18014;49.228;11.102;2022-10-28T06:52:39;12.68;;;9.30;;
31382;SDS011;18014;49.228;11.102;2022-10-28T06:54:40;11.93;;;10.15;;
31382;SDS011;18014;49.228;11.102;2022-10-28T06:56:42;12.40;;;10.02;;
31382;SDS011;18014;49.228;11.102;2022-10-28T06:58:49;13.98;;;10.60;;
31382;SDS011;18014;49.228;11.102;2022-10-28T07:00:51;14.77;;;9.77;;
31382;SDS011;18014;49.228;11.102;2022-10-28T07:02:52;13.57;;;10.88;;
31382;SDS011;18014;49.228;11.102;2022-10-28T07:04:53;15.82;;;11.80;;
31382;SDS011;18014;49.228;11.102;2022-10-28T07:06:55;14.20;;;10.52;;
31382;SDS011;18014;49.228;11.102;2022-10-28T07:08:57;20.17;;;10.23;;
31382;SDS011;18014;49.228;11.102;2022-10-28T07:10:58;10.73;;;8.95;;
31382;SDS011;18014;49.228;11.102;2022-10-28T07:12:59;16.00;;;9.75;;
31382;SDS011;18014;49.228;11.102;2022-10-28T07:15:00;10.57;;;9.48;;
31382;SDS011;18014;49.228;11.102;2022-10-28T07:17:01;14.85;;;11.52;;
31382;SDS011;18014;49.228;11.102;2022-10-28T07:19:03;18.83;;;11.25;;
31382;SDS011;18014;49.228;11.102;2022-10-28T07:21:04;20.88;;;12.90;;
31382;SDS011;18014;49.228;11.102;2022-10-28T07:23:05;22.23;;;12.23;;
31382;SDS011;18014;49.228;11.102;2022-10-28T07:25:07;14.23;;;9.15;;
31382;SDS011;18014;49.228;11.102;2022-10-28T07:27:08;16.80;;;10.25;;
31382;SDS011;18014;49.228;11.102;2022-10-28T07:29:09;18.60;;;13.18;;
31382;SDS011;18014;49.228;11.102;2022-10-28T07:31:10;14.60;;;9.57;;
31382;SDS011;18014;49.228;11.102;2022-10-28T07:33:11;13.80;;;9.65;;
31382;SDS011;18014;49.228;11.102;2022-10-28T07:35:13;12.43;;;8.38;;
31382;SDS011;18014;49.228;11.102;2022-10-28T07:37:14;12.82;;;10.55;;
31382;SDS011;18014;49.228;11.102;2022-10-28T07:39:15;16.35;;;9.35;;
31382;SDS011;18014;49.228;11.102;2022-10-28T07:41:17;13.48;;;9.90;;
31382;SDS011;18014;49.228;11.102;2022-10-28T07:43:19;17.10;;;10.30;;
31382;SDS011;18014;49.228;11.102;2022-10-28T07:45:20;10.30;;;8.38;;
31382;SDS011;18014;49.228;11.102;2022-10-28T07:47:21;14.63;;;8.50;;
31382;SDS011;18014;49.228;11.102;2022-10-28T07:49:22;11.80;;;8.50;;
31382;SDS011;18014;49.228;11.102;2022-10-28T07:51:24;13.82;;;8.13;;
31382;SDS011;18014;49.228;11.102;2022-10-28T07:53:26;12.88;;;8.25;;
31382;SDS011;18014;49.228;11.102;2022-10-28T07:55:27;12.40;;;8.60;;
31382;SDS011;18014;49.228;11.102;2022-10-28T07:57:28;14.15;;;7.80;;
31382;SDS011;18014;49.228;11.102;2022-10-28T07:59:29;11.15;;;9.02;;
31382;SDS011;18014;49.228;11.102;2022-10-28T08:01:30;10.60;;;7.88;;
31382;SDS011;18014;49.228;11.102;2022-10-28T08:03:32;11.30;;;7.80;;
31382;SDS011;18014;49.228;11.102;2022-10-28T08:05:33;9.25;;;7.47;;
31382;SDS011;18014;49.228;11.102;2022-10-28T08:07:34;11.20;;;7.13;;
31382;SDS011;18014;49.228;11.102;2022-10-28T08:09:35;8.63;;;6.50;;
31382;SDS011;18014;49.228;11.102;2022-10-28T08:11:36;10.85;;;6.88;;
31382;SDS011;18014;49.228;11.102;2022-10-28T08:13:37;13.02;;;6.25;;
31382;SDS011;18014;49.228;11.102;2022-10-28T08:15:38;13.35;;;5.75;;
31382;SDS011;18014;49.228;11.102;2022-10-28T08:17:39;7.95;;;5.25;;
31382;SDS011;18014;49.228;11.102;2022-10-28T08:19:40;7.55;;;4.97;;
31382;SDS011;18014;49.228;11.102;2022-10-28T08:21:41;9.60;;;5.22;;
31382;SDS011;18014;49.228;11.102;2022-10-28T08:23:42;8.00;;;4.75;;
31382;SDS011;18014;49.228;11.102;2022-10-28T08:25:46;5.75;;;4.55;;
31382;SDS011;18014;49.228;11.102;2022-10-28T08:27:51;7.63;;;4.32;;
31382;SDS011;18014;49.228;11.102;2022-10-28T08:29:52;11.02;;;4.88;;
31382;SDS011;18014;49.228;11.102;2022-10-28T08:31:53;7.57;;;4.75;;
31382;SDS011;18014;49.228;11.102;2022-10-28T08:33:54;7.35;;;4.40;;
31382;SDS011;18014;49.228;11.102;2022-10-28T08:35:55;5.47;;;4.55;;
31382;SDS011;18014;49.228;11.102;2022-10-28T08:37:56;10.40;;;4.05;;
31382;SDS011;18014;49.228;11.102;2022-10-28T08:39:56;6.30;;;3.97;;
31382;SDS011;18014;49.228;11.102;2022-10-28T08:42:06;6.03;;;4.28;;
31382;SDS011;18014;49.228;11.102;2022-10-28T08:46:56;9.82;;;4.22;;
31382;SDS011;18014;49.228;11.102;2022-10-28T08:49:11;8.35;;;4.10;;
31382;SDS011;18014;49.228;11.102;2022-10-28T08:51:16;8.70;;;3.95;;
31382;SDS011;18014;49.228;11.102;2022-10-28T08:53:26;9.40;;;4.28;;
31382;SDS011;18014;49.228;11.102;2022-10-28T08:55:34;7.80;;;4.32;;
31382;SDS011;18014;49.228;11.102;2022-10-28T08:57:39;6.07;;;3.60;;
31382;SDS011;18014;49.228;11.102;2022-10-28T08:59:53;7.15;;;4.05;;
31382;SDS011;18014;49.228;11.102;2022-10-28T09:02:11;7.90;;;4.07;;
31382;SDS011;18014;49.228;11.102;2022-10-28T09:06:42;7.28;;;3.70;;
31382;SDS011;18014;49.228;11.102;2022-10-28T09:08:44;6.10;;;3.00;;
31382;SDS011;18014;49.228;11.102;2022-10-28T09:15:40;6.60;;;3.20;;
31382;SDS011;18014;49.228;11.102;2022-10-28T09:17:52;5.22;;;3.25;;
31382;SDS011;18014;49.228;11.102;2022-10-28T09:20:42;7.03;;;3.05;;
31382;SDS011;18014;49.228;11.102;2022-10-28T09:22:45;5.32;;;3.33;;
31382;SDS011;18014;49.228;11.102;2022-10-28T09:27:42;9.73;;;3.40;;
31382;SDS011;18014;49.228;11.102;2022-10-28T09:34:58;5.05;;;2.58;;
31382;SDS011;18014;49.228;11.102;2022-10-28T09:36:57;7.15;;;2.90;;
31382;SDS011;18014;49.228;11.102;2022-10-28T09:39:00;3.28;;;2.70;;
31382;SDS011;18014;49.228;11.102;2022-10-28T09:43:35;4.85;;;2.47;;
31382;SDS011;18014;49.228;11.102;2022-10-28T09:46:10;6.00;;;2.50;;
31382;SDS011;18014;49.228;11.102;2022-10-28T09:50:36;5.35;;;2.45;;
31382;SDS011;18014;49.228;11.102;2022-10-28T09:55:07;7.07;;;2.55;;
31382;SDS011;18014;49.228;11.102;2022-10-28T09:57:19;5.50;;;2.58;;
31382;SDS011;18014;49.228;11.102;2022-10-28T09:59:28;6.50;;;2.38;;
31382;SDS011;18014;49.228;11.102;2022-10-28T10:01:31;6.22;;;3.13;;
31382;SDS011;18014;49.228;11.102;2022-10-28T10:03:34;7.95;;;2.53;;
31382;SDS011;18014;49.228;11.102;2022-10-28T10:05:39;5.75;;;2.67;;
31382;SDS011;18014;49.228;11.102;2022-10-28T10:07:45;3.97;;;2.47;;
31382;SDS011;18014;49.228;11.102;2022-10-28T10:12:12;6.05;;;2.70;;
31382;SDS011;18014;49.228;11.102;2022-10-28T10:16:38;6.80;;;2.25;;
31382;SDS011;18014;49.228;11.102;2022-10-28T10:18:50;8.55;;;2.95;;
31382;SDS011;18014;49.228;11.102;2022-10-28T10:20:55;4.50;;;2.20;;
31382;SDS011;18014;49.228;11.102;2022-10-28T10:22:59;9.27;;;2.40;;
31382;SDS011;18014;49.228;11.102;2022-10-28T10:25:01;7.72;;;2.83;;
31382;SDS011;18014;49.228;11.102;2022-10-28T10:27:17;5.75;;;2.55;;
31382;SDS011;18014;49.228;11.102;2022-10-28T10:29:19;5.33;;;2.63;;
31382;SDS011;18014;49.228;11.102;2022-10-28T10:31:22;6.85;;;2.25;;
31382;SDS011;18014;49.228;11.102;2022-10-28T10:35:33;6.68;;;2.47;;
31382;SDS011;18014;49.228;11.102;2022-10-28T10:37:36;4.25;;;2.58;;
31382;SDS011;18014;49.228;11.102;2022-10-28T10:39:42;5.43;;;2.33;;
31382;SDS011;18014;49.228;11.102;2022-10-28T10:41:43;6.35;;;2.65;;
31382;SDS011;18014;49.228;11.102;2022-10-28T10:43:44;4.30;;;2.20;;
31382;SDS011;18014;49.228;11.102;2022-10-28T10:48:28;8.75;;;2.30;;
31382;SDS011;18014;49.228;11.102;2022-10-28T10:50:32;3.35;;;2.10;;
31382;SDS011;18014;49.228;11.102;2022-10-28T10:52:36;4.00;;;2.58;;
31382;SDS011;18014;49.228;11.102;2022-10-28T10:54:39;4.63;;;2.20;;
31382;SDS011;18014;49.228;11.102;2022-10-28T10:57:14;4.57;;;2.55;;
31382;SDS011;18014;49.228;11.102;2022-10-28T10:59:28;4.80;;;2.38;;
31382;SDS011;18014;49.228;11.102;2022-10-28T11:01:33;4.88;;;2.00;;
31382;SDS011;18014;49.228;11.102;2022-10-28T11:03:37;4.35;;;2.28;;
31382;SDS011;18014;49.228;11.102;2022-10-28T11:05:59;4.88;;;2.30;;
31382;SDS011;18014;49.228;11.102;2022-10-28T11:08:01;7.10;;;2.47;;
31382;SDS011;18014;49.228;11.102;2022-10-28T11:10:05;6.32;;;2.38;;
31382;SDS011;18014;49.228;11.102;2022-10-28T11:12:26;7.22;;;2.13;;
31382;SDS011;18014;49.228;11.102;2022-10-28T11:14:30;4.28;;;1.83;;
31382;SDS011;18014;49.228;11.102;2022-10-28T11:16:31;4.15;;;2.28;;
31382;SDS011;18014;49.228;11.102;2022-10-28T11:18:40;4.13;;;2.00;;
31382;SDS011;18014;49.228;11.102;2022-10-28T11:20:46;6.03;;;2.20;;
31382;SDS011;18014;49.228;11.102;2022-10-28T11:22:58;5.70;;;2.30;;
31382;SDS011;18014;49.228;11.102;2022-10-28T11:30:01;5.22;;;1.90;;
31382;SDS011;18014;49.228;11.102;2022-10-28T11:41:12;4.85;;;1.88;;
31382;SDS011;18014;49.228;11.102;2022-10-28T11:50:07;5.03;;;1.88;;
31382;SDS011;18014;49.228;11.102;2022-10-28T11:52:33;4.45;;;2.03;;
31382;SDS011;18014;49.228;11.102;2022-10-28T11:57:09;4.85;;;2.03;;
31382;SDS011;18014;49.228;11.102;2022-10-28T12:01:40;4.60;;;1.83;;
31382;SDS011;18014;49.228;11.102;2022-10-28T12:04:05;3.30;;;1.85;;
31382;SDS011;18014;49.228;11.102;2022-10-28T12:12:40;3.55;;;1.88;;
31382;SDS011;18014;49.228;11.102;2022-10-28T12:15:16;6.00;;;2.28;;
31382;SDS011;18014;49.228;11.102;2022-10-28T12:19:42;4.10;;;2.05;;
31382;SDS011;18014;49.228;11.102;2022-10-28T12:21:55;5.88;;;1.90;;
31382;SDS011;18014;49.228;11.102;2022-10-28T12:24:09;4.57;;;2.00;;
31382;SDS011;18014;49.228;11.102;2022-10-28T12:26:15;5.78;;;1.67;;
31382;SDS011;18014;49.228;11.102;2022-10-28T12:28:19;6.22;;;2.28;;
31382;SDS011;18014;49.228;11.102;2022-10-28T12:30:28;3.58;;;2.00;;
31382;SDS011;18014;49.228;11.102;2022-10-28T12:32:32;3.15;;;1.83;;
31382;SDS011;18014;49.228;11.102;2022-10-28T12:34:36;4.53;;;2.20;;
31382;SDS011;18014;49.228;11.102;2022-10-28T12:39:02;5.85;;;2.13;;
31382;SDS011;18014;49.228;11.102;2022-10-28T12:43:22;6.18;;;2.00;;
31382;SDS011;18014;49.228;11.102;2022-10-28T12:45:59;6.47;;;2.13;;
31382;SDS011;18014;49.228;11.102;2022-10-28T12:56:53;6.53;;;2.28;;
31382;SDS011;18014;49.228;11.102;2022-10-28T12:59:19;4.55;;;1.90;;
31382;SDS011;18014;49.228;11.102;2022-10-28T13:01:35;5.68;;;1.77;;
31382;SDS011;18014;49.228;11.102;2022-10-28T13:03:37;6.35;;;2.30;;
31382;SDS011;18014;49.228;11.102;2022-10-28T13:07:56;8.15;;;2.20;;
31382;SDS011;18014;49.228;11.102;2022-10-28T13:10:16;3.92;;;2.28;;
31382;SDS011;18014;49.228;11.102;2022-10-28T13:24:44;8.13;;;2.42;;
31382;SDS011;18014;49.228;11.102;2022-10-28T13:27:00;5.93;;;2.22;;
31382;SDS011;18014;49.228;11.102;2022-10-28T13:29:04;5.15;;;2.13;;
31382;SDS011;18014;49.228;11.102;2022-10-28T13:31:07;5.32;;;2.38;;
31382;SDS011;18014;49.228;11.102;2022-10-28T13:33:12;5.32;;;2.10;;
31382;SDS011;18014;49.228;11.102;2022-10-28T13:37:22;9.60;;;2.60;;
31382;SDS011;18014;49.228;11.102;2022-10-28T13:45:50;5.75;;;2.45;;
31382;SDS011;18014;49.228;11.102;2022-10-28T13:47:52;5.88;;;2.40;;
31382;SDS011;18014;49.228;11.102;2022-10-28T13:50:31;4.65;;;2.25;;
31382;SDS011;18014;49.228;11.102;2022-10-28T13:56:45;5.13;;;2.10;;
31382;SDS011;18014;49.228;11.102;2022-10-28T14:00:54;6.30;;;2.58;;
31382;SDS011;18014;49.228;11.102;2022-10-28T14:02:58;3.63;;;2.05;;
31382;SDS011;18014;49.228;11.102;2022-10-28T14:05:11;4.13;;;2.10;;
31382;SDS011;18014;49.228;11.102;2022-10-28T14:09:21;5.32;;;2.60;;
31382;SDS011;18014;49.228;11.102;2022-10-28T14:11:25;7.35;;;2.88;;
31382;SDS011;18014;49.228;11.102;2022-10-28T14:13:30;4.63;;;2.40;;
31382;SDS011;18014;49.228;11.102;2022-10-28T14:15:37;11.18;;;2.15;;
31382;SDS011;18014;49.228;11.102;2022-10-28T14:18:22;8.10;;;2.72;;
31382;SDS011;18014;49.228;11.102;2022-10-28T14:20:27;4.75;;;2.25;;
31382;SDS011;18014;49.228;11.102;2022-10-28T14:22:47;6.30;;;2.75;;
31382;SDS011;18014;49.228;11.102;2022-10-28T14:24:50;3.28;;;2.13;;
31382;SDS011;18014;49.228;11.102;2022-10-28T14:29:21;5.20;;;2.08;;
31382;SDS011;18014;49.228;11.102;2022-10-28T14:31:33;6.45;;;2.70;;
31382;SDS011;18014;49.228;11.102;2022-10-28T14:35:51;8.25;;;2.10;;
31382;SDS011;18014;49.228;11.102;2022-10-28T14:38:07;6.75;;;2.08;;
31382;SDS011;18014;49.228;11.102;2022-10-28T14:40:20;4.43;;;2.33;;
31382;SDS011;18014;49.228;11.102;2022-10-28T14:42:41;3.40;;;1.63;;
31382;SDS011;18014;49.228;11.102;2022-10-28T14:52:16;9.80;;;2.97;;